CheckWX is a tool to help pilots better visualize weather data.  It is not intended as a substitute for an official pre-flight weather briefing.

08:17:52 UTC

EKSP METAR
Vojens Skrydstrup Airport
Vojens, Denmark
Current

28 mins ago

EKSP 290750Z 32005KT 280V030 CAVOK 12/07 Q1032 NOSIG RMK SKC
Observed
May-29 @ 07:50 UTC
Wind
  • 320° at 5 KTS
Visibility
10,000+ meters
Flight Rules
VFR
Cloud Levels
  • Clear skies
Temperature
12°C / 54°F
Dewpoint
C / 45°F
Humidity
72%
Altimeter
30.47" Hg
Pressure
1031.92 hPa
Previous

58 mins ago

EKSP 290720Z 32003KT CAVOK 11/06 Q1032 NOSIG RMK SKC
Observed
May-29 @ 07:20 UTC
Wind
  • 320° at 3 KTS
Visibility
10,000+ meters
Flight Rules
VFR
Cloud Levels
  • Clear skies
Temperature
11°C / 52°F
Dewpoint
C / 43°F
Humidity
72%
Altimeter
30.47" Hg
Pressure
1031.92 hPa
Previous

1 hour ago

EKSP 290650Z 32004KT 290V360 9999 FEW012 11/06 Q1032 NOSIG
Observed
May-29 @ 06:50 UTC
Wind
  • 320° at 4 KTS
Visibility
10,000+ meters
Flight Rules
VFR
Cloud Levels
  • Few at 1,200' AGL
Temperature
11°C / 52°F
Dewpoint
C / 43°F
Humidity
72%
Altimeter
30.47" Hg
Pressure
1031.92 hPa